Hamoir, Belgium
Current Conditions -  °F | °C
As of 9:50 AM on Monday 22 Dec 2014 (Local Time) from EBLG Reporting Station
Broken Clouds Broken Clouds  
Wind Chill:   Ceiling: 800
Heat Index:   Visibility: 4mi
Dew Point:   Wind: 23mph
Humidity: 87%   Direction: 220°SW
Pressure: 30.21"   Gusts: NA
Location:  50.43°N, 5.53°E
Report Text: EBLG 220850Z 22020KT 7000 BKN008 07/05 Q1023 TEMPO 23022G35KT 3000 -DZRA BKN006
Loading
Personal Weather Stations






























Interactive Weather Map New forecast layout! Learn more

10-Day Weather Forecast

Advertisements
Track Severe Weather on mobile